Time;durP1;ratioP1;P1;durP2;ratioP2;P2;SDS_P1;SDS_P2;PMS_P1;PMS_P2;Temp;Humidity;BMP_temperature;BMP_pressure;BME280_temperature;BME280_humidity;BME280_pressure;Samples;Min_cycle;Max_cycle;Signal;HPM_P1;HPM_P2
2021/06/21 00:00:54;;;;;;;10.23;6.55;;;15.50;99.90;;;;;;5047587;28;20067;-45
2021/06/21 00:03:23;;;;;;;14.73;7.65;;;15.50;99.90;;;;;;5047249;28;20132;-44
2021/06/21 00:05:53;;;;;;;11.18;6.32;;;15.50;99.90;;;;;;5045107;28;20080;-47
2021/06/21 00:08:25;;;;;;;12.18;7.05;;;15.50;99.90;;;;;;5044500;28;20055;-46
2021/06/21 00:10:59;;;;;;;8.50;6.07;;;15.50;99.90;;;;;;5031965;28;20477;-45
2021/06/21 00:13:27;;;;;;;;;;;15.50;99.90;;;;;;5045648;28;20376;-46
2021/06/21 00:15:55;;;;;;;9.63;6.38;;;15.50;99.90;;;;;;5046107;28;19921;-44
2021/06/21 00:18:23;;;;;;;11.32;6.50;;;15.40;99.90;;;;;;5046730;28;20044;-45
2021/06/21 00:20:53;;;;;;;11.15;5.82;;;15.40;99.90;;;;;;5034905;28;20057;-45
2021/06/21 00:23:23;;;;;;;9.27;6.38;;;15.40;99.90;;;;;;5026845;28;20053;-44
2021/06/21 00:25:54;;;;;;;10.70;5.57;;;15.30;99.90;;;;;;5026668;28;20042;-45
2021/06/21 00:28:21;;;;;;;8.13;5.38;;;15.30;99.90;;;;;;5047495;28;20571;-43
2021/06/21 00:30:49;;;;;;;11.40;5.93;;;15.30;99.90;;;;;;5040770;28;20049;-46
2021/06/21 00:33:21;;;;;;;9.53;6.17;;;15.30;99.90;;;;;;5046462;28;20523;-45
2021/06/21 00:36:06;;;;;;;12.43;6.32;;;15.30;99.90;;;;;;5046460;28;20051;-45
2021/06/21 00:38:37;;;;;;;10.25;6.38;;;15.30;99.90;;;;;;5047926;28;20461;-46
2021/06/21 00:41:07;;;;;;;11.07;7.57;;;15.30;99.90;;;;;;5046027;28;20093;-47
2021/06/21 00:43:33;;;;;;;13.43;6.90;;;15.30;99.90;;;;;;5045131;28;20045;-44
2021/06/21 00:46:01;;;;;;;11.98;6.82;;;15.30;99.90;;;;;;5046378;28;20737;-44
2021/06/21 00:48:27;;;;;;;12.68;6.55;;;15.20;99.90;;;;;;5045772;28;20045;-43
2021/06/21 00:50:56;;;;;;;11.55;6.43;;;15.20;99.90;;;;;;5027329;28;20749;-45
2021/06/21 00:53:25;;;;;;;10.57;6.55;;;15.30;99.90;;;;;;5026362;28;20479;-44
2021/06/21 00:55:58;;;;;;;8.20;6.25;;;15.20;99.90;;;;;;5028301;28;20053;-45
2021/06/21 00:58:30;;;;;;;9.63;6.25;;;15.20;99.90;;;;;;5045291;28;20465;-45
2021/06/21 01:00:56;;;;;;;10.07;6.25;;;15.20;99.90;;;;;;5044320;28;20041;-45
2021/06/21 01:03:23;;;;;;;10.13;5.97;;;15.20;99.90;;;;;;5044582;28;20107;-46
2021/06/21 01:05:53;;;;;;;12.15;5.95;;;15.20;99.90;;;;;;5045676;28;20057;-47
2021/06/21 01:08:23;;;;;;;11.88;6.03;;;15.10;99.90;;;;;;5043037;28;20138;-44
2021/06/21 01:10:56;;;;;;;9.95;5.97;;;15.10;99.90;;;;;;5042670;28;20056;-46
2021/06/21 01:13:54;;;;;;;10.57;5.40;;;15.10;99.90;;;;;;5044693;28;20045;-48
2021/06/21 01:16:31;;;;;;;10.43;5.43;;;15.10;99.90;;;;;;5028549;28;20549;-46
2021/06/21 01:19:16;;;;;;;8.50;4.72;;;15.10;99.90;;;;;;5026308;28;20103;-46
2021/06/21 01:22:37;;;;;;;7.70;5.28;;;15.10;99.90;;;;;;5035407;28;20049;-46
2021/06/21 01:25:15;;;;;;;16.20;6.18;;;15.10;99.90;;;;;;5054475;28;20068;-47
2021/06/21 01:28:02;;;;;;;9.70;4.85;;;15.00;99.90;;;;;;5051175;28;20049;-45
2021/06/21 01:30:52;;;;;;;9.80;5.25;;;15.10;99.90;;;;;;5048766;28;20476;-45
2021/06/21 01:33:22;;;;;;;9.55;4.72;;;15.00;99.90;;;;;;5048859;28;20049;-45
2021/06/21 01:36:01;;;;;;;8.02;4.85;;;15.00;99.90;;;;;;5036286;28;20045;-45
2021/06/21 01:38:45;;;;;;;7.55;5.45;;;15.00;99.90;;;;;;5049737;28;20055;-45
2021/06/21 01:41:28;;;;;;;9.85;5.63;;;15.00;99.90;;;;;;5049211;28;20043;-44
2021/06/21 01:43:59;;;;;;;12.20;6.20;;;15.00;99.90;;;;;;5045908;28;20114;-46
2021/06/21 01:46:30;;;;;;;11.05;5.38;;;14.90;99.90;;;;;;5051092;28;20103;-44
2021/06/21 01:49:03;;;;;;;8.27;5.50;;;14.80;99.90;;;;;;5057397;28;20090;-45
2021/06/21 01:51:34;;;;;;;8.63;5.63;;;14.80;99.90;;;;;;5047724;28;20352;-44
2021/06/21 01:54:05;;;;;;;9.68;5.68;;;14.80;99.90;;;;;;5050515;28;20143;-46
2021/06/21 01:56:46;;;;;;;11.95;6.68;;;14.70;99.90;;;;;;5049313;28;20045;-47
2021/06/21 01:59:17;;;;;;;9.27;6.00;;;14.70;99.90;;;;;;5050070;28;20063;-47
2021/06/21 02:01:47;;;;;;;12.15;7.03;;;14.70;99.90;;;;;;5042533;28;20702;-45
2021/06/21 02:04:14;;;;;;;11.25;7.03;;;14.70;99.90;;;;;;5030137;28;20107;-45
2021/06/21 02:06:46;;;;;;;12.48;7.28;;;14.60;99.90;;;;;;5029816;28;20464;-44
2021/06/21 02:09:13;;;;;;;13.18;7.65;;;14.60;99.90;;;;;;5033543;28;20124;-45
2021/06/21 02:11:42;;;;;;;12.45;7.20;;;14.60;99.90;;;;;;5044908;28;20120;-44
2021/06/21 02:14:12;;;;;;;8.68;6.68;;;14.60;99.90;;;;;;5038382;28;20056;-44
2021/06/21 02:16:38;;;;;;;12.75;7.57;;;14.60;99.90;;;;;;5050595;28;20048;-44
2021/06/21 02:19:07;;;;;;;11.38;6.72;;;14.50;99.90;;;;;;5039719;28;20486;-44
2021/06/21 02:21:36;;;;;;;11.13;6.22;;;14.50;99.90;;;;;;5027497;28;20053;-45
2021/06/21 02:24:12;;;;;;;10.88;6.95;;;14.50;99.90;;;;;;5031873;28;20045;-44
2021/06/21 02:26:43;;;;;;;10.23;7.00;;;14.40;99.90;;;;;;5034583;28;20078;-41
2021/06/21 02:29:12;;;;;;;11.90;6.90;;;14.40;99.90;;;;;;5056283;28;20040;-40
2021/06/21 02:31:41;;;;;;;10.00;7.05;;;14.40;99.90;;;;;;5049023;28;20045;-40
2021/06/21 02:34:10;;;;;;;10.30;6.03;;;14.40;99.90;;;;;;5040047;28;20385;-39
2021/06/21 02:36:36;;;;;;;9.68;5.45;;;14.30;99.90;;;;;;5047503;28;20045;-39
2021/06/21 02:39:06;;;;;;;10.30;5.80;;;14.30;99.90;;;;;;5049652;28;20056;-39
2021/06/21 02:41:36;;;;;;;9.85;5.93;;;14.30;99.90;;;;;;5041679;28;20045;-40
2021/06/21 02:44:04;;;;;;;7.80;5.95;;;14.30;99.90;;;;;;5048565;28;20053;-40
2021/06/21 02:46:33;;;;;;;11.70;6.68;;;14.20;99.90;;;;;;5048696;28;20049;-39
2021/06/21 02:49:03;;;;;;;9.35;6.63;;;14.30;99.90;;;;;;5049596;28;20478;-39
2021/06/21 02:51:44;;;;;;;11.13;6.80;;;14.20;99.90;;;;;;5048954;28;20053;-39
2021/06/21 02:54:19;;;;;;;12.38;6.03;;;14.20;99.90;;;;;;5050373;28;20493;-39
2021/06/21 02:57:08;;;;;;;10.38;5.32;;;14.20;99.90;;;;;;5055830;28;20040;-39
2021/06/21 02:59:44;;;;;;;8.85;5.40;;;14.20;99.90;;;;;;5049527;28;20532;-39
2021/06/21 03:02:14;;;;;;;10.60;5.88;;;14.20;99.90;;;;;;5028975;28;20050;-39
2021/06/21 03:05:02;;;;;;;10.40;5.97;;;14.10;99.90;;;;;;5032271;28;20029;-39
2021/06/21 03:07:33;;;;;;;10.73;6.80;;;14.10;99.90;;;;;;5031752;28;20051;-39
2021/06/21 03:10:07;;;;;;;9.90;5.38;;;14.10;99.90;;;;;;5028618;28;20140;-39
2021/06/21 03:12:37;;;;;;;9.25;5.10;;;14.10;99.90;;;;;;5040521;28;20489;-39
2021/06/21 03:15:09;;;;;;;10.68;5.70;;;14.10;99.90;;;;;;5047913;28;20045;-40
2021/06/21 03:17:38;;;;;;;9.82;4.97;;;14.10;99.90;;;;;;5042365;28;20049;-40
2021/06/21 03:20:08;;;;;;;12.52;6.63;;;14.10;99.90;;;;;;5028532;28;20132;-40
2021/06/21 03:22:36;;;;;;;9.63;5.78;;;14.10;99.90;;;;;;5027555;28;20057;-39
2021/06/21 03:25:03;;;;;;;9.27;4.95;;;14.10;99.90;;;;;;5030012;28;20095;-40
2021/06/21 03:27:34;;;;;;;11.18;5.70;;;14.00;99.90;;;;;;5039334;28;20045;-40
2021/06/21 03:30:07;;;;;;;12.25;6.13;;;14.10;99.90;;;;;;5047721;28;20084;-40
2021/06/21 03:32:41;;;;;;;11.65;5.75;;;14.00;99.90;;;;;;5028356;28;20476;-40
2021/06/21 03:35:10;;;;;;;12.20;6.20;;;14.10;99.90;;;;;;5029625;28;20041;-40
2021/06/21 03:37:36;;;;;;;9.55;5.95;;;14.10;99.90;;;;;;5033938;28;20041;-40
2021/06/21 03:40:06;;;;;;;10.35;5.80;;;14.10;99.90;;;;;;5028915;28;20422;-40
2021/06/21 03:42:38;;;;;;;7.13;5.43;;;14.10;99.90;;;;;;5041674;28;20052;-40
2021/06/21 03:45:05;;;;;;;;;;;14.00;99.90;;;;;;5044113;28;20073;-40
2021/06/21 03:47:38;;;;;;;8.63;5.55;;;14.00;99.90;;;;;;5047152;28;20336;-41
2021/06/21 03:50:06;;;;;;;12.95;6.60;;;14.00;99.90;;;;;;5048135;28;20144;-39
2021/06/21 03:52:35;;;;;;;9.63;6.32;;;14.00;99.90;;;;;;5047383;28;20041;-39
2021/06/21 03:55:07;;;;;;;10.90;6.63;;;14.00;99.90;;;;;;5048631;28;20079;-40
2021/06/21 03:57:38;;;;;;;10.05;6.53;;;14.00;99.90;;;;;;5042348;28;20045;-40
2021/06/21 04:00:33;;;;;;;10.60;6.50;;;14.00;99.90;;;;;;5048254;28;20547;-40
2021/06/21 04:03:08;;;;;;;12.82;6.97;;;14.00;99.90;;;;;;5029888;28;20480;-40
2021/06/21 04:05:39;;;;;;;11.95;7.65;;;14.00;99.90;;;;;;5045794;28;20157;-40
2021/06/21 04:08:10;;;;;;;9.32;6.75;;;14.00;99.90;;;;;;5063557;28;20512;-40
2021/06/21 04:10:37;;;;;;;11.05;7.20;;;14.00;99.90;;;;;;5066598;28;20055;-41
2021/06/21 04:13:05;;;;;;;11.57;7.18;;;14.00;99.90;;;;;;5046890;28;20481;-41
2021/06/21 04:15:32;;;;;;;11.85;7.22;;;13.90;99.90;;;;;;5045273;28;20049;-41
2021/06/21 04:18:09;;;;;;;12.30;6.70;;;13.90;99.90;;;;;;5039428;28;20055;-41
2021/06/21 04:20:38;;;;;;;10.55;7.40;;;13.90;99.90;;;;;;5053743;28;20041;-41
2021/06/21 04:23:09;;;;;;;11.80;8.18;;;13.90;99.90;;;;;;5044931;28;20057;-42
2021/06/21 04:25:37;;;;;;;11.25;8.30;;;14.00;99.90;;;;;;5045577;28;20384;-44
2021/06/21 04:28:09;;;;;;;14.73;7.97;;;14.00;99.90;;;;;;5044545;28;20139;-44
2021/06/21 04:30:37;;;;;;;11.95;8.60;;;13.90;99.90;;;;;;5044146;28;20049;-44
2021/06/21 04:33:08;;;;;;;10.85;8.05;;;14.00;99.90;;;;;;5028064;28;20053;-43
2021/06/21 04:35:35;;;;;;;17.63;9.35;;;14.00;99.90;;;;;;5044509;28;20537;-43
2021/06/21 04:38:04;;;;;;;16.17;9.50;;;14.00;99.90;;;;;;5044809;28;20076;-42
2021/06/21 04:40:35;;;;;;;17.08;9.57;;;14.00;99.90;;;;;;5046292;28;20091;-42
2021/06/21 04:43:05;;;;;;;12.75;9.18;;;14.00;99.90;;;;;;5047408;28;20049;-44
2021/06/21 04:45:35;;;;;;;15.47;10.13;;;14.00;99.90;;;;;;5047823;28;20041;-42
2021/06/21 04:48:05;;;;;;;14.75;9.10;;;14.00;99.90;;;;;;5048094;28;20464;-43
2021/06/21 04:50:37;;;;;;;13.93;9.20;;;14.00;99.90;;;;;;5046668;28;20045;-40
2021/06/21 04:53:05;;;;;;;20.38;10.57;;;14.00;99.90;;;;;;5028330;28;20072;-41
2021/06/21 04:55:32;;;;;;;14.77;10.07;;;14.00;99.90;;;;;;5028012;28;20044;-40
2021/06/21 04:58:01;;;;;;;10.32;8.07;;;14.20;99.90;;;;;;5043036;28;20091;-44
2021/06/21 05:00:30;;;;;;;11.27;8.63;;;14.30;99.90;;;;;;5043930;28;20083;-45
2021/06/21 05:02:56;;;;;;;11.52;7.72;;;14.50;99.90;;;;;;5050361;28;20549;-43
2021/06/21 05:05:22;;;;;;;12.38;9.73;;;14.60;99.90;;;;;;5028695;28;20156;-41
2021/06/21 05:07:55;;;;;;;12.63;8.45;;;14.60;99.90;;;;;;5029352;28;20041;-42
2021/06/21 05:10:25;;;;;;;9.45;7.57;;;14.70;99.90;;;;;;5028020;28;20048;-43
2021/06/21 05:12:55;;;;;;;9.68;7.63;;;14.80;99.90;;;;;;5046226;28;20468;-43
2021/06/21 05:15:24;;;;;;;10.00;7.85;;;14.80;99.90;;;;;;5040841;28;20512;-41
2021/06/21 05:17:55;;;;;;;11.98;8.90;;;14.90;99.90;;;;;;5029364;28;20081;-43
2021/06/21 05:20:25;;;;;;;11.15;7.45;;;14.90;99.90;;;;;;5027827;28;20053;-44
2021/06/21 05:22:52;;;;;;;11.65;7.80;;;14.90;99.90;;;;;;5027514;28;20482;-42
2021/06/21 05:25:20;;;;;;;12.63;7.80;;;14.80;99.90;;;;;;5034450;28;20048;-42
2021/06/21 05:27:49;;;;;;;12.38;7.38;;;14.90;99.90;;;;;;5043514;28;20477;-43
2021/06/21 05:30:16;;;;;;;11.10;7.32;;;15.00;99.90;;;;;;5039038;28;20134;-43
2021/06/21 05:32:47;;;;;;;11.00;7.38;;;15.00;99.90;;;;;;5047205;28;20382;-41
2021/06/21 05:35:17;;;;;;;10.18;7.50;;;14.90;99.90;;;;;;5045879;28;20041;-42
2021/06/21 05:37:45;;;;;;;8.57;6.40;;;14.90;99.90;;;;;;5037700;28;20064;-39
2021/06/21 05:40:16;;;;;;;11.20;7.05;;;14.90;99.90;;;;;;5040109;28;20108;-39
2021/06/21 05:42:43;;;;;;;293.73;264.70;;;14.90;99.90;;;;;;5049363;28;20073;-39
2021/06/21 05:45:11;;;;;;;51.90;46.20;;;15.10;99.90;;;;;;5047298;28;20477;-38
2021/06/21 05:47:39;;;;;;;31.63;23.92;;;15.10;99.90;;;;;;5051432;28;20041;-38
2021/06/21 05:50:06;;;;;;;25.38;22.15;;;14.90;99.90;;;;;;5059439;28;20135;-38
2021/06/21 05:52:32;;;;;;;22.10;18.55;;;15.00;99.90;;;;;;5046688;28;20052;-38
2021/06/21 05:55:01;;;;;;;28.80;25.20;;;15.00;99.90;;;;;;5040330;28;20073;-45
2021/06/21 05:57:30;;;;;;;14.80;11.32;;;15.00;99.90;;;;;;5027948;28;20050;-42
2021/06/21 05:59:58;;;;;;;13.38;11.30;;;15.00;99.90;;;;;;5039557;28;20155;-42
2021/06/21 06:02:25;;;;;;;17.70;13.05;;;15.00;99.90;;;;;;5046980;28;20041;-42
2021/06/21 06:04:52;;;;;;;17.38;12.07;;;15.10;99.90;;;;;;5040432;28;20045;-39
2021/06/21 06:07:24;;;;;;;12.73;8.88;;;15.00;99.90;;;;;;5036215;28;20041;-40
2021/06/21 06:09:52;;;;;;;11.45;8.77;;;14.90;99.90;;;;;;5042348;28;20148;-40
2021/06/21 06:12:22;;;;;;;9.85;7.38;;;14.80;99.90;;;;;;5044322;28;20064;-40
2021/06/21 06:14:49;;;;;;;10.75;7.60;;;14.70;99.90;;;;;;5047215;28;20140;-41
2021/06/21 06:17:19;;;;;;;33.97;30.35;;;14.70;99.90;;;;;;5033560;28;20048;-43
2021/06/21 06:19:45;;;;;;;16.05;11.60;;;14.90;99.90;;;;;;5055436;28;20045;-40
2021/06/21 06:22:13;;;;;;;19.33;13.52;;;14.60;99.90;;;;;;5050940;28;20057;-41
2021/06/21 06:24:42;;;;;;;14.82;11.35;;;14.50;99.90;;;;;;5041947;28;20046;-40
2021/06/21 06:27:11;;;;;;;13.43;9.30;;;14.40;99.90;;;;;;5046274;28;20056;-40
2021/06/21 06:29:45;;;;;;;14.40;12.10;;;14.50;99.90;;;;;;5045844;28;20048;-40
2021/06/21 06:32:13;;;;;;;13.63;8.27;;;14.40;99.90;;;;;;5048000;28;20041;-40
2021/06/21 06:34:41;;;;;;;15.65;13.55;;;14.40;99.90;;;;;;5047688;28;20370;-41
2021/06/21 06:37:10;;;;;;;15.45;11.65;;;14.40;99.90;;;;;;5031079;28;20470;-43
2021/06/21 06:39:37;;;;;;;15.05;11.40;;;14.40;99.90;;;;;;5045703;28;20053;-44
2021/06/21 06:42:06;;;;;;;15.85;12.13;;;14.30;99.90;;;;;;5039204;28;20045;-42
2021/06/21 06:44:33;;;;;;;22.95;17.35;;;14.40;99.90;;;;;;5032220;28;20100;-43
2021/06/21 06:46:59;;;;;;;28.17;22.02;;;14.40;99.90;;;;;;5028615;28;20068;-43
2021/06/21 06:49:26;;;;;;;19.90;14.90;;;14.30;99.90;;;;;;5031104;28;20037;-43
2021/06/21 06:51:54;;;;;;;15.15;12.68;;;14.30;99.90;;;;;;5030934;28;20049;-42
2021/06/21 06:54:27;;;;;;;19.98;15.30;;;14.30;99.90;;;;;;5052062;28;20049;-40
2021/06/21 06:56:59;;;;;;;11.32;8.52;;;14.40;99.90;;;;;;5049585;28;20607;-42
2021/06/21 06:59:36;;;;;;;;;;;14.30;99.90;;;;;;5050787;28;20052;-42
2021/06/21 07:02:08;;;;;;;18.13;13.82;;;14.30;99.90;;;;;;5053316;28;19920;-44
2021/06/21 07:04:36;;;;;;;13.15;11.23;;;14.30;99.90;;;;;;5049729;28;20814;-42
2021/06/21 07:07:03;;;;;;;15.88;9.48;;;14.20;99.90;;;;;;5045964;28;20752;-44
2021/06/21 07:09:34;;;;;;;14.27;11.38;;;14.30;99.90;;;;;;5040498;28;20410;-40
2021/06/21 07:12:01;;;;;;;19.33;15.70;;;14.20;99.90;;;;;;5052571;28;20487;-41
2021/06/21 07:14:32;;;;;;;12.80;8.77;;;14.20;99.90;;;;;;5039432;28;20052;-43
2021/06/21 07:17:01;;;;;;;13.95;10.90;;;14.20;99.90;;;;;;5049065;28;20463;-42
2021/06/21 07:19:29;;;;;;;13.57;8.45;;;14.10;99.90;;;;;;5040076;28;20409;-41
2021/06/21 07:21:55;;;;;;;14.07;10.43;;;14.20;99.90;;;;;;5048487;28;20474;-42
2021/06/21 07:24:22;;;;;;;12.43;7.35;;;14.20;99.90;;;;;;5040375;28;20048;-43
2021/06/21 07:26:50;;;;;;;13.07;8.20;;;14.20;99.90;;;;;;5048709;28;20053;-44
2021/06/21 07:29:17;;;;;;;14.50;9.55;;;14.20;99.90;;;;;;5050005;28;20072;-42
2021/06/21 07:31:47;;;;;;;13.02;10.60;;;14.20;99.90;;;;;;5047414;28;20483;-41
2021/06/21 07:34:16;;;;;;;13.85;9.80;;;14.20;99.90;;;;;;5041789;28;20052;-41
2021/06/21 07:36:42;;;;;;;12.05;7.03;;;14.10;99.90;;;;;;5049388;28;20362;-43
2021/06/21 07:39:09;;;;;;;28.85;23.15;;;14.10;99.90;;;;;;5054496;28;20044;-44
2021/06/21 07:41:36;;;;;;;17.30;10.95;;;14.10;99.90;;;;;;5048121;28;20056;-44
2021/06/21 07:44:03;;;;;;;16.40;12.10;;;14.10;99.90;;;;;;5047874;28;20041;-45
2021/06/21 07:46:32;;;;;;;16.98;12.45;;;14.10;99.90;;;;;;5028445;28;20052;-41
2021/06/21 07:49:02;;;;;;;16.58;13.93;;;14.00;99.90;;;;;;5028879;28;20482;-42
2021/06/21 07:51:30;;;;;;;17.58;12.52;;;14.00;99.90;;;;;;5036550;28;20075;-46
2021/06/21 07:53:57;;;;;;;13.20;8.85;;;13.90;99.90;;;;;;5048387;28;20132;-43
2021/06/21 07:56:27;;;;;;;15.68;10.88;;;13.90;99.90;;;;;;5048605;28;20366;-43
2021/06/21 07:58:54;;;;;;;20.35;17.52;;;13.90;99.90;;;;;;5048408;28;20056;-44
2021/06/21 08:01:24;;;;;;;13.48;10.85;;;14.00;99.90;;;;;;5048620;28;20045;-43
2021/06/21 08:03:55;;;;;;;18.23;14.48;;;14.00;99.90;;;;;;5051292;28;20426;-44
2021/06/21 08:06:24;;;;;;;19.25;13.27;;;14.00;99.90;;;;;;5048493;28;20412;-44
2021/06/21 08:08:50;;;;;;;15.15;12.90;;;14.00;99.90;;;;;;5047448;28;20049;-43
2021/06/21 08:11:17;;;;;;;12.73;6.93;;;14.00;99.90;;;;;;5046065;28;20084;-41
2021/06/21 08:13:58;;;;;;;14.75;8.02;;;14.00;99.90;;;;;;5049551;28;20037;-42
2021/06/21 08:16:29;;;;;;;9.05;5.60;;;14.00;99.90;;;;;;5052693;28;20044;-43
2021/06/21 08:18:56;;;;;;;14.38;9.82;;;14.00;99.90;;;;;;5051986;28;20131;-45
2021/06/21 08:21:23;;;;;;;12.25;8.00;;;14.00;99.90;;;;;;5043309;28;20487;-43
2021/06/21 08:23:50;;;;;;;10.98;5.03;;;14.00;99.90;;;;;;5036941;28;20060;-44
2021/06/21 08:26:16;;;;;;;21.10;16.38;;;14.00;99.90;;;;;;5042076;28;20044;-43
2021/06/21 08:28:42;;;;;;;16.10;13.43;;;14.00;99.90;;;;;;5041269;28;20041;-44
2021/06/21 08:31:09;;;;;;;22.40;18.27;;;14.00;99.90;;;;;;5028442;28;20390;-47
2021/06/21 08:33:35;;;;;;;15.57;8.95;;;13.90;99.90;;;;;;5028116;28;20459;-43
2021/06/21 08:36:02;;;;;;;16.40;10.55;;;13.90;99.90;;;;;;5033858;28;20051;-43
2021/06/21 08:38:28;;;;;;;13.93;6.57;;;13.90;99.90;;;;;;5038115;28;20041;-45
2021/06/21 08:40:54;;;;;;;9.13;6.35;;;13.90;99.90;;;;;;5047799;28;20044;-45
2021/06/21 08:43:20;;;;;;;17.58;13.20;;;13.90;99.90;;;;;;5047934;28;20118;-45
2021/06/21 08:45:48;;;;;;;18.23;12.27;;;14.00;99.90;;;;;;5052174;28;20390;-45
2021/06/21 08:48:15;;;;;;;19.50;15.52;;;14.00;99.90;;;;;;5027361;28;20045;-44
2021/06/21 08:50:42;;;;;;;19.80;14.52;;;14.00;99.90;;;;;;5032028;28;20156;-45
2021/06/21 08:53:12;;;;;;;13.18;9.55;;;13.90;99.90;;;;;;5039851;28;20048;-43
2021/06/21 08:55:39;;;;;;;16.92;13.20;;;13.80;99.90;;;;;;5045854;28;20060;-42
2021/06/21 08:58:05;;;;;;;12.00;5.78;;;13.90;99.90;;;;;;5047001;28;20041;-45
2021/06/21 09:00:31;;;;;;;20.67;13.05;;;13.80;99.90;;;;;;5045315;28;20516;-44
2021/06/21 09:03:02;;;;;;;16.33;9.52;;;13.90;99.90;;;;;;5046453;28;20201;-44
2021/06/21 09:05:32;;;;;;;11.00;7.10;;;13.90;99.90;;;;;;5046366;28;20048;-42
2021/06/21 09:08:02;;;;;;;12.30;7.05;;;13.90;99.90;;;;;;5046760;28;20045;-46
2021/06/21 09:10:30;;;;;;;12.80;8.77;;;14.00;99.90;;;;;;5045637;28;20385;-44
2021/06/21 09:13:07;;;;;;;14.15;10.45;;;14.00;99.90;;;;;;5046137;28;20132;-45
2021/06/21 09:15:45;;;;;;;15.52;8.73;;;14.00;99.90;;;;;;5037355;28;20461;-43
2021/06/21 09:18:34;;;;;;;17.33;9.65;;;14.00;99.90;;;;;;5034278;28;20503;-42
2021/06/21 09:21:22;;;;;;;16.90;9.77;;;14.10;99.90;;;;;;5046828;28;20552;-45
2021/06/21 09:23:51;;;;;;;10.48;7.22;;;14.10;99.90;;;;;;5042244;28;20085;-40
2021/06/21 09:26:29;;;;;;;14.02;8.15;;;14.10;99.90;;;;;;5046661;28;20052;-47
2021/06/21 09:29:00;;;;;;;17.50;13.88;;;14.20;99.90;;;;;;5053909;28;20045;-45
2021/06/21 09:31:27;;;;;;;10.50;5.65;;;14.20;99.90;;;;;;5047146;28;20048;-46
2021/06/21 09:34:14;;;;;;;93.60;83.55;;;14.30;99.90;;;;;;5047386;28;20045;-40
2021/06/21 09:36:40;;;;;;;16.65;10.13;;;14.60;99.90;;;;;;5037734;28;20055;-42
2021/06/21 09:39:25;;;;;;;22.00;16.02;;;14.80;99.90;;;;;;5046680;28;20037;-46
2021/06/21 09:42:24;;;;;;;10.75;5.28;;;14.90;99.90;;;;;;5045747;28;20036;-44
2021/06/21 09:44:59;;;;;;;8.73;4.57;;;15.10;99.90;;;;;;5031824;28;20106;-45
2021/06/21 09:47:27;;;;;;;14.23;7.82;;;15.20;99.90;;;;;;5048141;28;20489;-43
2021/06/21 09:50:16;;;;;;;8.63;4.45;;;15.30;99.90;;;;;;5041778;28;20408;-44
2021/06/21 09:52:58;;;;;;;8.68;4.57;;;15.40;99.90;;;;;;5044625;28;20048;-43
2021/06/21 09:55:30;;;;;;;6.63;3.60;;;15.50;99.90;;;;;;5040322;28;20095;-44
2021/06/21 09:58:10;;;;;;;9.88;3.70;;;15.40;99.90;;;;;;5046469;28;20139;-45
2021/06/21 10:00:41;;;;;;;9.02;4.78;;;15.40;99.90;;;;;;5041986;28;20158;-43
2021/06/21 10:03:15;;;;;;;8.52;4.15;;;15.40;99.90;;;;;;5036738;28;20040;-46
2021/06/21 10:06:07;;;;;;;7.35;3.05;;;15.40;99.90;;;;;;5044920;28;20037;-46
2021/06/21 10:08:43;;;;;;;6.40;3.15;;;15.50;99.90;;;;;;5043290;28;20199;-44
2021/06/21 10:11:30;;;;;;;6.97;2.65;;;15.50;99.90;;;;;;5040561;28;20551;-44
2021/06/21 10:13:58;;;;;;;4.95;2.58;;;15.50;99.90;;;;;;5032383;28;20107;-44
2021/06/21 10:16:25;;;;;;;5.07;2.55;;;15.50;99.90;;;;;;5044429;28;20138;-43
2021/06/21 10:18:57;;;;;;;7.20;2.50;;;15.50;99.90;;;;;;5046176;28;20049;-42
2021/06/21 10:21:29;;;;;;;6.57;2.58;;;15.40;99.90;;;;;;5049497;28;20053;-44
2021/06/21 10:23:58;;;;;;;;;;;15.30;99.90;;;;;;5049784;28;20453;-44
2021/06/21 10:26:24;;;;;;;4.47;2.28;;;15.30;99.90;;;;;;5048388;28;20389;-43
2021/06/21 10:28:53;;;;;;;3.15;2.05;;;15.40;99.90;;;;;;5049470;28;20053;-42
2021/06/21 10:31:30;;;;;;;26.15;23.25;;;15.40;99.90;;;;;;5048401;28;20052;-50
2021/06/21 10:34:05;;;;;;;5.90;3.13;;;15.40;99.90;;;;;;5044829;28;20463;-50
2021/06/21 10:36:52;;;;;;;8.63;3.38;;;15.20;99.90;;;;;;5042654;28;20045;-50
2021/06/21 10:39:19;;;;;;;18.50;14.68;;;15.20;99.90;;;;;;5041157;28;20048;-49
2021/06/21 10:42:04;;;;;;;6.15;3.60;;;15.30;99.90;;;;;;5048706;28;20131;-45
2021/06/21 10:44:41;;;;;;;8.13;6.47;;;15.40;99.90;;;;;;5045329;28;20106;-46
2021/06/21 10:47:28;;;;;;;6.18;3.00;;;15.40;99.90;;;;;;5043087;28;20046;-46
2021/06/21 10:50:18;;;;;;;6.93;4.47;;;15.40;99.90;;;;;;5030385;28;20148;-42
2021/06/21 10:52:59;;;;;;;5.47;2.90;;;15.30;99.90;;;;;;5035084;28;20046;-44
2021/06/21 10:55:35;;;;;;;6.35;2.50;;;15.40;99.90;;;;;;5043463;28;20401;-46
2021/06/21 10:58:30;;;;;;;6.38;3.63;;;15.40;99.90;;;;;;5044864;28;20045;-42
2021/06/21 11:01:10;;;;;;;3.00;2.30;;;15.50;99.90;;;;;;5049283;28;20049;-45
2021/06/21 11:03:38;;;;;;;5.53;2.38;;;15.30;99.90;;;;;;5047694;28;20045;-46
2021/06/21 11:06:24;;;;;;;5.93;2.40;;;15.20;99.90;;;;;;5047599;28;20389;-43
2021/06/21 11:08:57;;;;;;;5.57;2.50;;;15.30;99.90;;;;;;5048284;28;20049;-47
2021/06/21 11:11:53;;;;;;;5.28;2.47;;;15.30;99.90;;;;;;5048468;28;20064;-45
2021/06/21 11:14:24;;;;;;;4.13;2.03;;;15.30;99.90;;;;;;5046643;28;20444;-44
2021/06/21 11:17:19;;;;;;;4.78;2.10;;;15.40;99.90;;;;;;5041462;28;20075;-45
2021/06/21 11:19:49;;;;;;;7.35;2.58;;;15.40;99.90;;;;;;5044567;28;20393;-44
2021/06/21 11:22:16;;;;;;;5.55;2.65;;;15.10;99.90;;;;;;5046634;28;20053;-44
2021/06/21 11:24:49;;;;;;;4.53;2.22;;;15.20;99.90;;;;;;5042016;28;20555;-46
2021/06/21 11:27:21;;;;;;;6.00;2.55;;;15.10;99.90;;;;;;5038365;28;20045;-46
2021/06/21 11:29:54;;;;;;;4.65;2.00;;;15.10;99.90;;;;;;5047321;28;20539;-44
2021/06/21 11:32:26;;;;;;;4.57;2.28;;;15.10;99.90;;;;;;5050480;28;20099;-45
2021/06/21 11:35:00;;;;;;;5.30;2.05;;;15.00;99.90;;;;;;5053995;28;20539;-43
2021/06/21 11:37:35;;;;;;;7.47;2.47;;;15.00;99.90;;;;;;5048248;28;20093;-44
2021/06/21 11:40:21;;;;;;;5.10;2.40;;;15.00;99.90;;;;;;5042904;28;20110;-45
2021/06/21 11:42:59;;;;;;;3.17;1.98;;;15.10;99.90;;;;;;5041124;28;20119;-45
2021/06/21 11:45:47;;;;;;;5.50;2.45;;;15.00;99.90;;;;;;5047941;28;20049;-44
2021/06/21 11:48:37;;;;;;;9.85;7.53;;;15.00;99.90;;;;;;5048928;28;20620;-46
2021/06/21 11:51:17;;;;;;;6.68;4.22;;;15.00;99.90;;;;;;5035658;28;20045;-44
2021/06/21 11:53:49;;;;;;;9.40;6.75;;;15.00;99.90;;;;;;5038968;28;20367;-40
2021/06/21 11:56:26;;;;;;;8.50;4.20;;;15.10;99.90;;;;;;5050710;28;20037;-40
2021/06/21 11:58:55;;;;;;;10.82;8.15;;;15.10;99.90;;;;;;5045420;28;20037;-40
2021/06/21 12:01:28;;;;;;;7.28;3.05;;;15.00;99.90;;;;;;5038500;28;20049;-40
2021/06/21 12:04:00;;;;;;;11.05;8.80;;;15.00;99.90;;;;;;5029253;28;20404;-41
2021/06/21 12:06:28;;;;;;;5.72;2.85;;;14.90;99.90;;;;;;5049684;28;20040;-40
2021/06/21 12:08:55;;;;;;;6.15;2.65;;;14.90;99.90;;;;;;5046227;28;20069;-41
2021/06/21 12:11:24;;;;;;;6.60;3.63;;;14.80;99.90;;;;;;5055204;28;20432;-41
2021/06/21 12:14:08;;;;;;;9.20;5.03;;;14.90;99.90;;;;;;5047799;28;20110;-40
2021/06/21 12:16:42;;;;;;;31.48;27.60;;;14.80;99.90;;;;;;5048421;28;20067;-41
2021/06/21 12:19:15;;;;;;;11.02;8.27;;;14.90;99.90;;;;;;5044643;28;20053;-41
2021/06/21 12:21:45;;;;;;;6.15;3.13;;;14.90;99.90;;;;;;5043001;28;20135;-40
2021/06/21 12:24:24;;;;;;;14.82;11.43;;;14.90;99.90;;;;;;5046021;28;20143;-40
2021/06/21 12:27:03;;;;;;;21.75;17.02;;;15.00;99.90;;;;;;5045629;28;20051;-40
2021/06/21 12:29:31;;;;;;;24.90;20.10;;;14.90;99.90;;;;;;5051980;28;20377;-44
2021/06/21 12:32:07;;;;;;;22.38;16.20;;;15.00;99.90;;;;;;5048688;28;20477;-46
2021/06/21 12:34:59;;;;;;;11.32;7.20;;;15.10;99.90;;;;;;5047857;28;20045;-46
2021/06/21 12:37:36;;;;;;;12.13;7.47;;;15.20;99.90;;;;;;5045427;28;20041;-45
2021/06/21 12:40:12;;;;;;;7.75;4.95;;;15.30;99.90;;;;;;5045042;28;20041;-46
2021/06/21 12:42:39;;;;;;;30.13;25.02;;;15.40;99.90;;;;;;5045839;28;20045;-45
2021/06/21 12:45:20;;;;;;;6.35;3.22;;;15.40;99.90;;;;;;5052694;28;20087;-47
2021/06/21 12:47:48;;;;;;;17.85;13.25;;;15.40;99.90;;;;;;5046735;28;20055;-50
2021/06/21 12:50:17;;;;;;;15.98;12.27;;;15.40;99.90;;;;;;5046296;28;20049;-46
2021/06/21 12:52:47;;;;;;;18.17;15.77;;;15.50;99.90;;;;;;5046740;28;20044;-46
2021/06/21 12:55:35;;;;;;;6.50;4.10;;;15.60;99.90;;;;;;5042572;28;20049;-44
2021/06/21 12:58:05;;;;;;;7.10;3.63;;;15.60;99.90;;;;;;5049275;28;20033;-47
2021/06/21 13:00:40;;;;;;;10.10;7.82;;;15.50;99.90;;;;;;5045430;28;20088;-43
2021/06/21 13:03:10;;;;;;;6.72;3.55;;;15.50;99.90;;;;;;5052186;28;20052;-46